createdAt,value
2023-03-19T00:02:22.999Z,46.30
2023-03-19T00:05:53.980Z,46.50
2023-03-19T00:09:18.328Z,46.70
2023-03-19T00:12:41.968Z,46.70
2023-03-19T00:16:07.217Z,46.70
2023-03-19T00:19:32.206Z,46.80
2023-03-19T00:22:56.096Z,46.90
2023-03-19T00:26:19.772Z,47.00
2023-03-19T00:29:43.261Z,47.00
2023-03-19T00:33:07.203Z,46.90
2023-03-19T00:36:32.119Z,47.00
2023-03-19T00:39:55.560Z,47.30
2023-03-19T00:43:18.959Z,47.00
2023-03-19T00:46:43.505Z,46.50
2023-03-19T00:50:08.234Z,46.90
2023-03-19T00:53:33.064Z,47.10
2023-03-19T01:00:21.277Z,46.70
2023-03-19T01:03:47.128Z,47.30
2023-03-19T01:10:36.322Z,47.00
2023-03-19T01:14:02.577Z,47.50
2023-03-19T01:17:26.325Z,47.20
2023-03-19T01:24:14.747Z,47.10
2023-03-19T01:34:53.527Z,47.00
2023-03-19T01:56:24.913Z,47.00
2023-03-19T02:00:05.033Z,47.00
2023-03-19T02:03:43.627Z,46.80
2023-03-19T02:07:14.363Z,47.10
2023-03-19T02:10:39.187Z,47.60
2023-03-19T02:14:03.014Z,47.70
2023-03-19T02:17:28.871Z,47.20
2023-03-19T02:21:02.179Z,48.00
2023-03-19T02:24:34.808Z,48.00
2023-03-19T02:28:03.735Z,48.10
2023-03-19T02:31:28.007Z,48.90
2023-03-19T02:34:51.594Z,48.90
2023-03-19T02:41:42.968Z,50.20
2023-03-19T02:48:33.473Z,49.90
2023-03-19T02:51:56.868Z,50.80
2023-03-19T02:55:21.434Z,50.90
2023-03-19T02:58:45.381Z,51.60
2023-03-19T03:02:11.664Z,51.60
2023-03-19T03:05:35.720Z,51.70
2023-03-19T03:08:59.377Z,51.80
2023-03-19T03:12:22.796Z,51.90
2023-03-19T03:15:46.315Z,52.10
2023-03-19T03:19:11.467Z,52.20
2023-03-19T03:22:35.043Z,53.40
2023-03-19T03:25:58.589Z,52.40
2023-03-19T03:29:23.079Z,52.50
2023-03-19T03:32:46.780Z,52.80
2023-03-19T03:36:12.397Z,52.80
2023-03-19T03:39:36.148Z,52.90
2023-03-19T03:42:59.698Z,52.90
2023-03-19T03:46:24.318Z,53.00
2023-03-19T03:49:48.765Z,53.10
2023-03-19T03:53:14.379Z,53.10
2023-03-19T03:56:37.980Z,53.20
2023-03-19T04:00:01.610Z,53.20
2023-03-19T04:03:27.115Z,53.20
2023-03-19T04:06:50.709Z,53.30
2023-03-19T04:10:32.459Z,53.40
2023-03-19T04:13:57.024Z,53.50
2023-03-19T04:17:21.313Z,53.60
2023-03-19T04:20:44.866Z,53.70
2023-03-19T04:24:09.881Z,53.80
2023-03-19T04:27:35.754Z,54.00
2023-03-19T04:31:04.534Z,53.90
2023-03-19T04:34:30.163Z,54.20
2023-03-19T04:37:53.856Z,54.20
2023-03-19T04:41:18.269Z,54.40
2023-03-19T04:44:57.226Z,54.30
2023-03-19T04:48:20.809Z,54.50
2023-03-19T04:51:46.005Z,54.50
2023-03-19T04:55:10.646Z,54.60
2023-03-19T04:58:46.100Z,54.80
2023-03-19T05:02:11.821Z,54.90
2023-03-19T05:05:35.937Z,54.80
2023-03-19T05:09:04.690Z,54.90
2023-03-19T05:12:28.691Z,55.00
2023-03-19T05:15:55.990Z,55.00
2023-03-19T05:19:22.211Z,55.10
2023-03-19T05:22:47.568Z,55.20
2023-03-19T05:26:12.991Z,55.30
2023-03-19T05:30:00.224Z,55.30
2023-03-19T05:33:40.138Z,55.40
2023-03-19T05:37:06.081Z,55.30
2023-03-19T05:40:29.919Z,55.40
2023-03-19T05:43:56.359Z,55.40
2023-03-19T05:47:36.375Z,55.60
2023-03-19T05:51:00.565Z,55.80
2023-03-19T05:54:30.671Z,55.80
2023-03-19T05:57:59.110Z,56.00
2023-03-19T06:01:24.404Z,56.10
2023-03-19T06:04:47.912Z,56.20
2023-03-19T06:08:14.402Z,56.10
2023-03-19T06:12:02.505Z,56.20
2023-03-19T06:15:44.884Z,56.40
2023-03-19T06:19:28.651Z,56.40
2023-03-19T06:22:52.866Z,56.50
2023-03-19T06:26:18.295Z,56.50
2023-03-19T06:29:49.390Z,56.60
2023-03-19T06:33:19.068Z,56.80
2023-03-19T06:36:42.762Z,56.80
2023-03-19T06:40:10.019Z,56.80
2023-03-19T06:43:36.909Z,57.00
2023-03-19T06:47:01.749Z,56.90
2023-03-19T06:50:26.394Z,57.00
2023-03-19T06:53:49.978Z,57.10
2023-03-19T06:57:13.602Z,57.10
2023-03-19T07:00:37.234Z,57.10
2023-03-19T07:04:02.096Z,57.20
2023-03-19T07:07:25.924Z,57.40
2023-03-19T07:10:49.623Z,57.80
2023-03-19T07:14:13.185Z,57.00
2023-03-19T07:17:36.572Z,56.70
2023-03-19T07:21:01.429Z,56.70
2023-03-19T07:24:25.085Z,56.80
2023-03-19T07:27:48.879Z,57.10
2023-03-19T07:31:12.365Z,57.00
2023-03-19T07:34:35.798Z,57.00
2023-03-19T07:38:00.765Z,57.00
2023-03-19T07:41:24.807Z,57.00
2023-03-19T07:44:48.210Z,56.90
2023-03-19T07:48:12.652Z,57.00
2023-03-19T07:51:36.695Z,57.00
2023-03-19T07:55:01.517Z,57.60
2023-03-19T07:58:26.330Z,57.00
2023-03-19T08:01:49.822Z,57.10
2023-03-19T08:05:13.450Z,57.70
2023-03-19T08:08:37.163Z,57.20
2023-03-19T08:12:01.895Z,57.20
2023-03-19T08:15:25.630Z,57.40
2023-03-19T08:18:50.283Z,57.20
2023-03-19T08:22:14.836Z,57.20
2023-03-19T08:25:38.340Z,57.30
2023-03-19T08:29:04.130Z,57.50
2023-03-19T08:32:27.736Z,57.60
2023-03-19T08:35:52.123Z,57.50
2023-03-19T08:39:16.266Z,58.00
2023-03-19T08:42:44.334Z,57.50
2023-03-19T08:46:10.291Z,57.60
2023-03-19T08:49:34.042Z,57.50
2023-03-19T08:52:57.662Z,57.30
2023-03-19T08:56:21.628Z,57.30
2023-03-19T08:59:45.587Z,57.70
2023-03-19T09:03:10.471Z,56.70
2023-03-19T09:06:33.944Z,57.20
2023-03-19T09:09:57.369Z,57.30
2023-03-19T09:13:20.910Z,57.30
2023-03-19T09:16:44.847Z,57.40
2023-03-19T09:20:11.919Z,57.60
2023-03-19T09:23:35.367Z,58.50
2023-03-19T09:26:58.978Z,59.40
2023-03-19T09:30:22.892Z,59.50
2023-03-19T09:33:46.525Z,59.80
2023-03-19T09:37:12.643Z,59.20
2023-03-19T09:40:42.895Z,58.90
2023-03-19T09:47:39.617Z,57.00
2023-03-19T09:58:02.736Z,57.50
2023-03-19T10:01:31.013Z,60.70
2023-03-19T10:05:08.330Z,61.80
2023-03-19T10:12:33.606Z,58.30
2023-03-19T10:19:41.115Z,56.10
2023-03-19T10:23:38.316Z,56.90
2023-03-19T10:27:10.697Z,53.40
2023-03-19T10:30:36.431Z,53.40
2023-03-19T10:34:31.186Z,52.30
2023-03-19T11:19:56.254Z,43.50
2023-03-19T11:34:10.131Z,41.60
2023-03-19T11:41:32.671Z,42.10
2023-03-19T11:55:53.014Z,42.90
2023-03-19T12:03:58.968Z,40.90
2023-03-19T12:18:22.638Z,42.30
2023-03-19T12:22:03.067Z,41.80
2023-03-19T12:29:15.018Z,40.10
2023-03-19T12:33:03.886Z,40.30
2023-03-19T12:43:39.392Z,39.80
2023-03-19T12:47:08.469Z,40.00
2023-03-19T12:50:37.741Z,40.90
2023-03-19T13:04:41.367Z,40.20
2023-03-19T13:43:04.537Z,45.30
2023-03-19T13:54:07.988Z,46.20
2023-03-19T13:57:36.668Z,46.30
2023-03-19T14:11:25.766Z,46.40
2023-03-19T15:08:49.405Z,47.40
2023-03-19T15:40:43.493Z,47.70
2023-03-19T15:57:54.851Z,47.70
2023-03-19T16:11:56.267Z,48.20
2023-03-19T16:22:22.483Z,49.30
2023-03-19T16:29:22.042Z,49.70
2023-03-19T16:32:47.484Z,49.30
2023-03-19T17:10:43.315Z,60.70
2023-03-19T17:17:38.132Z,62.20
2023-03-19T17:21:07.170Z,63.00
2023-03-19T17:31:29.628Z,64.80
2023-03-19T17:34:53.208Z,65.40
2023-03-19T17:38:20.177Z,64.20
2023-03-19T17:45:16.124Z,66.30
2023-03-19T18:16:22.396Z,68.90
2023-03-19T18:19:49.136Z,69.50
2023-03-19T18:43:44.502Z,69.20
2023-03-19T19:52:19.509Z,73.60
2023-03-19T19:59:14.275Z,73.70
2023-03-19T20:12:55.215Z,74.50
2023-03-19T21:07:35.839Z,77.00
2023-03-19T21:14:26.876Z,77.40
2023-03-19T21:24:39.582Z,77.70
2023-03-19T21:31:30.120Z,78.10
2023-03-19T21:41:43.042Z,75.60
2023-03-19T21:45:07.950Z,77.30
2023-03-19T21:48:33.373Z,77.60
2023-03-19T21:51:57.305Z,77.10
2023-03-19T21:55:20.857Z,75.30
2023-03-19T22:02:40.979Z,76.10
2023-03-19T22:30:03.420Z,75.20
2023-03-19T22:33:28.705Z,77.10
2023-03-19T22:36:53.856Z,78.00
2023-03-19T22:40:19.338Z,79.10
2023-03-19T22:43:44.138Z,79.80
2023-03-19T22:47:07.570Z,80.30
2023-03-19T23:04:20.437Z,79.40
2023-03-19T23:07:45.276Z,81.80
2023-03-19T23:11:08.884Z,82.20
2023-03-19T23:18:01.200Z,79.60
2023-03-19T23:21:24.653Z,82.20
2023-03-19T23:24:49.382Z,82.90
2023-03-19T23:35:16.787Z,80.10
2023-03-19T23:38:40.217Z,82.50
2023-03-19T23:42:05.276Z,83.20
2023-03-19T23:45:34.572Z,83.00
2023-03-19T23:48:58.607Z,83.10
2023-03-19T23:52:22.036Z,83.10
2023-03-19T23:55:45.709Z,83.00
2023-03-19T23:59:11.947Z,82.80
